createdAt,value
2023-05-10T00:01:33.016Z,6.87
2023-05-10T00:04:02.261Z,7.17
2023-05-10T00:06:31.402Z,7.17
2023-05-10T00:09:00.556Z,7.00
2023-05-10T00:11:29.862Z,6.70
2023-05-10T00:13:59.071Z,7.10
2023-05-10T00:16:29.877Z,6.80
2023-05-10T00:18:59.050Z,6.30
2023-05-10T00:21:29.468Z,6.17
2023-05-10T00:23:58.741Z,7.13
2023-05-10T00:26:28.432Z,6.20
2023-05-10T00:28:59.790Z,6.80
2023-05-10T00:31:30.564Z,6.13
2023-05-10T00:34:00.261Z,6.20
2023-05-10T00:36:29.639Z,5.73
2023-05-10T00:38:58.800Z,6.30
2023-05-10T00:41:28.241Z,6.17
2023-05-10T00:43:57.678Z,5.90
2023-05-10T00:46:27.601Z,5.37
2023-05-10T00:48:58.277Z,5.93
2023-05-10T00:51:27.741Z,6.17
2023-05-10T00:53:57.393Z,5.97
2023-05-10T00:56:28.167Z,5.90
2023-05-10T00:58:57.659Z,5.87
2023-05-10T01:01:27.709Z,5.63
2023-05-10T01:03:59.030Z,5.23
2023-05-10T01:06:28.993Z,5.70
2023-05-10T01:08:58.889Z,5.57
2023-05-10T01:11:28.184Z,5.73
2023-05-10T01:14:00.172Z,6.10
2023-05-10T01:16:30.229Z,5.37
2023-05-10T01:19:01.571Z,5.93
2023-05-10T01:21:41.394Z,5.70
2023-05-10T01:24:48.077Z,5.90
2023-05-10T01:27:50.407Z,6.30
2023-05-10T01:30:43.135Z,5.60
2023-05-10T01:33:20.573Z,5.17
2023-05-10T01:35:58.004Z,5.70
2023-05-10T01:38:41.501Z,5.53
2023-05-10T01:41:17.294Z,5.40
2023-05-10T01:43:53.748Z,5.33
2023-05-10T01:46:31.003Z,5.63
2023-05-10T01:49:05.310Z,6.00
2023-05-10T01:51:47.892Z,6.07
2023-05-10T01:54:20.031Z,5.80
2023-05-10T01:56:52.904Z,5.10
2023-05-10T01:59:23.031Z,5.47
2023-05-10T02:01:55.459Z,5.17
2023-05-10T02:04:27.464Z,5.30
2023-05-10T02:06:57.625Z,5.40
2023-05-10T02:09:30.410Z,5.63
2023-05-10T02:12:01.299Z,5.50
2023-05-10T02:14:31.394Z,5.17
2023-05-10T02:17:02.442Z,4.87
2023-05-10T02:19:34.734Z,5.40
2023-05-10T02:22:05.822Z,5.30
2023-05-10T02:24:37.293Z,5.70
2023-05-10T02:27:07.050Z,5.60
2023-05-10T02:29:36.732Z,5.20
2023-05-10T02:32:07.415Z,5.40
2023-05-10T02:34:38.712Z,4.90
2023-05-10T02:37:08.429Z,5.07
2023-05-10T02:39:39.660Z,5.23
2023-05-10T02:42:09.523Z,5.87
2023-05-10T02:44:39.991Z,5.43
2023-05-10T02:47:10.796Z,6.07
2023-05-10T02:49:41.429Z,5.43
2023-05-10T02:52:11.738Z,5.23
2023-05-10T02:54:47.719Z,5.50
2023-05-10T02:57:20.519Z,5.60
2023-05-10T02:59:49.878Z,5.53
2023-05-10T03:02:19.310Z,5.20
2023-05-10T03:04:50.181Z,5.00
2023-05-10T03:07:22.413Z,5.03
2023-05-10T03:09:52.456Z,4.83
2023-05-10T03:12:31.990Z,4.83
2023-05-10T03:15:09.980Z,5.20
2023-05-10T03:17:55.147Z,5.20
2023-05-10T03:20:28.551Z,5.30
2023-05-10T03:23:05.080Z,5.27
2023-05-10T03:25:35.083Z,4.93
2023-05-10T03:28:07.694Z,5.93
2023-05-10T03:30:39.079Z,5.47
2023-05-10T03:33:10.049Z,5.00
2023-05-10T03:35:46.909Z,5.07
2023-05-10T03:38:17.255Z,4.73
2023-05-10T03:40:46.511Z,5.00
2023-05-10T03:43:15.806Z,4.80
2023-05-10T03:45:45.152Z,4.37
2023-05-10T03:48:15.105Z,5.47
2023-05-10T03:50:47.038Z,5.30
2023-05-10T03:53:16.604Z,4.80
2023-05-10T03:55:46.124Z,5.60
2023-05-10T03:58:15.553Z,5.27
2023-05-10T04:00:46.694Z,4.63
2023-05-10T04:03:17.409Z,5.03
2023-05-10T04:05:48.250Z,5.00
2023-05-10T04:08:18.276Z,4.97
2023-05-10T04:10:48.201Z,4.60
2023-05-10T04:13:17.412Z,5.25
2023-05-10T04:15:46.700Z,4.50
2023-05-10T04:18:15.917Z,4.78
2023-05-10T04:20:45.092Z,4.28
2023-05-10T04:23:17.722Z,4.70
2023-05-10T04:25:46.892Z,5.20
2023-05-10T04:28:16.048Z,4.50
2023-05-10T04:30:45.205Z,4.20
2023-05-10T04:33:14.365Z,5.22
2023-05-10T04:35:43.893Z,4.80
2023-05-10T04:38:14.450Z,4.93
2023-05-10T04:40:43.504Z,5.38
2023-05-10T04:43:12.597Z,4.40
2023-05-10T04:45:41.885Z,5.20
2023-05-10T04:48:11.090Z,5.05
2023-05-10T04:50:40.536Z,5.00
2023-05-10T04:53:09.738Z,4.95
2023-05-10T04:55:40.439Z,4.70
2023-05-10T04:58:09.644Z,4.93
2023-05-10T05:00:38.803Z,4.68
2023-05-10T05:03:08.199Z,4.78
2023-05-10T05:05:37.555Z,4.55
2023-05-10T05:08:06.840Z,4.68
2023-05-10T05:10:36.487Z,4.38
2023-05-10T05:13:07.181Z,4.55
2023-05-10T05:15:36.386Z,4.95
2023-05-10T05:18:06.152Z,4.50
2023-05-10T05:20:35.765Z,4.82
2023-05-10T05:23:05.166Z,4.43
2023-05-10T05:25:34.356Z,4.38
2023-05-10T05:28:03.656Z,4.90
2023-05-10T05:30:34.487Z,4.47
2023-05-10T05:33:03.900Z,4.22
2023-05-10T05:35:33.432Z,4.20
2023-05-10T05:38:02.737Z,4.50
2023-05-10T05:40:31.997Z,4.45
2023-05-10T05:43:01.148Z,4.10
2023-05-10T05:45:30.478Z,4.28
2023-05-10T05:48:02.497Z,4.57
2023-05-10T05:50:31.795Z,4.53
2023-05-10T05:53:01.048Z,4.40
2023-05-10T05:55:30.838Z,4.32
2023-05-10T05:58:00.198Z,4.15
2023-05-10T06:00:29.557Z,4.07
2023-05-10T06:02:58.917Z,3.95
2023-05-10T06:05:29.657Z,3.78
2023-05-10T06:07:58.922Z,3.83
2023-05-10T06:10:28.308Z,3.85
2023-05-10T06:12:57.758Z,3.67
2023-05-10T06:15:27.303Z,4.03
2023-05-10T06:17:56.941Z,3.88
2023-05-10T06:20:26.218Z,3.67
2023-05-10T06:22:56.922Z,3.80
2023-05-10T06:25:26.106Z,3.70
2023-05-10T06:27:58.971Z,3.50
2023-05-10T06:30:29.792Z,3.70
2023-05-10T06:33:00.048Z,4.00
2023-05-10T06:35:29.389Z,3.35
2023-05-10T06:38:00.130Z,3.40
2023-05-10T06:40:29.434Z,3.35
2023-05-10T06:42:58.744Z,3.40
2023-05-10T06:45:27.843Z,3.85
2023-05-10T06:47:57.193Z,3.90
2023-05-10T06:50:26.578Z,3.65
2023-05-10T06:52:56.673Z,3.50
2023-05-10T06:55:27.707Z,3.40
2023-05-10T06:57:57.013Z,3.15
2023-05-10T07:00:26.621Z,3.40
2023-05-10T07:02:56.326Z,3.00
2023-05-10T07:05:26.025Z,2.50
2023-05-10T07:07:55.269Z,3.78
2023-05-10T07:10:24.789Z,2.92
2023-05-10T07:12:55.442Z,2.95
2023-05-10T07:15:25.006Z,3.20
2023-05-10T07:17:54.450Z,3.35
2023-05-10T07:20:24.138Z,2.67
2023-05-10T07:22:53.613Z,2.72
2023-05-10T07:25:22.733Z,2.90
2023-05-10T07:27:52.267Z,3.20
2023-05-10T07:30:23.356Z,2.70
2023-05-10T07:32:52.962Z,2.65
2023-05-10T07:35:22.322Z,2.90
2023-05-10T07:37:51.619Z,2.90
2023-05-10T07:40:21.418Z,2.88
2023-05-10T07:42:50.858Z,2.88
2023-05-10T07:45:22.452Z,2.45
2023-05-10T07:47:52.137Z,2.58
2023-05-10T07:50:22.413Z,2.72
2023-05-10T07:52:51.836Z,2.63
2023-05-10T07:55:22.361Z,2.90
2023-05-10T07:57:51.459Z,2.40
2023-05-10T08:00:23.765Z,2.58
2023-05-10T08:02:53.224Z,2.45
2023-05-10T08:05:22.577Z,2.75
2023-05-10T08:07:51.732Z,2.25
2023-05-10T08:10:21.095Z,2.42
2023-05-10T08:12:50.400Z,2.63
2023-05-10T08:15:19.788Z,2.30
2023-05-10T08:17:50.852Z,2.40
2023-05-10T08:20:20.285Z,2.83
2023-05-10T08:22:51.741Z,2.47
2023-05-10T08:25:21.208Z,2.80
2023-05-10T08:27:50.278Z,2.40
2023-05-10T08:30:19.491Z,2.60
2023-05-10T08:32:50.117Z,2.40
2023-05-10T08:35:19.278Z,2.20
2023-05-10T08:37:48.547Z,2.65
2023-05-10T08:40:18.538Z,2.50
2023-05-10T08:42:59.319Z,2.50
2023-05-10T08:45:33.196Z,2.40
2023-05-10T08:48:05.295Z,2.50
2023-05-10T08:50:36.892Z,2.50
2023-05-10T08:53:09.408Z,2.67
2023-05-10T08:55:40.100Z,2.45
2023-05-10T08:58:09.718Z,2.50
2023-05-10T09:00:39.973Z,3.13
2023-05-10T09:03:11.559Z,2.47
2023-05-10T09:05:40.847Z,2.40
2023-05-10T09:08:11.819Z,2.38
2023-05-10T09:10:42.761Z,2.42
2023-05-10T09:13:13.889Z,2.30
2023-05-10T09:15:43.485Z,2.15
2023-05-10T09:18:14.499Z,2.97
2023-05-10T09:20:44.057Z,2.20
2023-05-10T09:23:13.268Z,2.42
2023-05-10T09:25:44.814Z,2.47
2023-05-10T09:28:14.309Z,2.35
2023-05-10T09:30:44.337Z,3.28
2023-05-10T09:33:15.052Z,2.70
2023-05-10T09:35:44.458Z,2.45
2023-05-10T09:38:13.672Z,2.40
2023-05-10T09:40:42.938Z,2.33
2023-05-10T09:43:12.791Z,2.45
2023-05-10T09:45:44.271Z,2.90
2023-05-10T09:48:14.948Z,2.40
2023-05-10T09:50:44.394Z,2.15
2023-05-10T09:53:18.185Z,2.67
2023-05-10T09:55:50.484Z,2.72
2023-05-10T09:58:19.755Z,2.58
2023-05-10T10:00:52.745Z,2.53
2023-05-10T10:03:25.554Z,2.50
2023-05-10T10:05:57.208Z,2.42
2023-05-10T10:08:26.946Z,2.65
2023-05-10T10:10:56.456Z,2.95
2023-05-10T10:13:26.476Z,2.10
2023-05-10T10:15:57.421Z,2.70
2023-05-10T10:18:29.888Z,2.40
2023-05-10T10:20:59.618Z,2.40
2023-05-10T10:23:29.819Z,2.88
2023-05-10T10:25:59.550Z,2.28
2023-05-10T10:28:41.335Z,2.80
2023-05-10T10:31:26.334Z,2.58
2023-05-10T10:34:04.314Z,2.22
2023-05-10T10:36:35.184Z,2.58
2023-05-10T10:39:05.369Z,2.45
2023-05-10T10:41:36.301Z,2.50
2023-05-10T10:44:38.170Z,2.42
2023-05-10T10:47:11.091Z,2.53
2023-05-10T10:49:46.602Z,2.60
2023-05-10T10:52:29.554Z,2.13
2023-05-10T10:55:04.254Z,2.60
2023-05-10T10:57:49.952Z,2.60
2023-05-10T11:00:28.253Z,2.35
2023-05-10T11:03:00.463Z,2.40
2023-05-10T11:05:49.707Z,2.50
2023-05-10T11:08:23.078Z,2.33
2023-05-10T11:11:05.834Z,2.40
2023-05-10T11:13:36.265Z,2.17
2023-05-10T11:16:29.407Z,2.25
2023-05-10T11:19:04.627Z,2.83
2023-05-10T11:21:37.008Z,2.38
2023-05-10T11:24:17.026Z,2.28
2023-05-10T11:26:46.862Z,2.40
2023-05-10T11:29:16.426Z,2.38
2023-05-10T11:31:46.587Z,2.60
2023-05-10T11:34:26.266Z,2.60
2023-05-10T11:36:58.653Z,2.45
2023-05-10T11:39:30.023Z,2.67
2023-05-10T11:42:00.003Z,2.42
2023-05-10T11:44:32.771Z,2.38
2023-05-10T11:47:02.758Z,2.58
2023-05-10T11:49:32.399Z,2.47
2023-05-10T11:52:09.817Z,2.83
2023-05-10T11:54:39.312Z,2.40
2023-05-10T11:57:08.957Z,2.53
2023-05-10T11:59:40.248Z,2.42
2023-05-10T12:02:11.336Z,2.63
2023-05-10T12:04:40.950Z,2.30
2023-05-10T12:07:12.082Z,2.50
2023-05-10T12:09:46.280Z,2.40
2023-05-10T12:12:19.395Z,2.55
2023-05-10T12:14:52.967Z,2.22
2023-05-10T12:17:22.429Z,2.22
2023-05-10T12:19:51.713Z,2.35
2023-05-10T12:22:24.971Z,2.38
2023-05-10T12:24:54.133Z,2.83
2023-05-10T12:30:11.458Z,2.50
2023-05-10T12:32:42.686Z,2.40
2023-05-10T12:35:12.040Z,2.65
2023-05-10T12:37:42.606Z,2.20
2023-05-10T12:40:13.372Z,2.03
2023-05-10T12:42:42.903Z,2.30
2023-05-10T12:45:12.908Z,2.20
2023-05-10T12:47:44.020Z,2.50
2023-05-10T12:50:13.402Z,2.38
2023-05-10T12:52:43.936Z,2.50
2023-05-10T12:55:12.979Z,2.28
2023-05-10T12:57:42.465Z,2.25
2023-05-10T13:00:12.626Z,2.20
2023-05-10T13:02:42.002Z,2.47
2023-05-10T13:05:12.648Z,2.15
2023-05-10T13:07:45.025Z,2.60
2023-05-10T13:10:14.486Z,2.10
2023-05-10T13:12:43.899Z,2.72
2023-05-10T13:15:13.305Z,2.70
2023-05-10T13:17:43.850Z,2.33
2023-05-10T13:20:13.842Z,2.30
2023-05-10T13:22:45.541Z,2.38
2023-05-10T13:25:15.356Z,2.20
2023-05-10T13:27:44.615Z,2.22
2023-05-10T13:30:14.182Z,2.33
2023-05-10T13:32:43.484Z,2.60
2023-05-10T13:35:12.691Z,2.60
2023-05-10T13:37:41.881Z,2.33
2023-05-10T13:40:13.375Z,2.47
2023-05-10T13:42:42.495Z,2.40
2023-05-10T13:45:13.365Z,2.53
2023-05-10T13:47:42.639Z,2.58
2023-05-10T13:50:12.196Z,2.20
2023-05-10T13:52:41.417Z,2.20
2023-05-10T13:55:13.547Z,2.47
2023-05-10T13:57:42.799Z,2.17
2023-05-10T14:00:12.880Z,2.30
2023-05-10T14:02:42.203Z,2.08
2023-05-10T14:05:12.400Z,1.85
2023-05-10T14:07:42.372Z,2.63
2023-05-10T14:10:14.027Z,2.13
2023-05-10T14:12:43.207Z,2.30
2023-05-10T14:15:13.438Z,2.22
2023-05-10T14:17:42.681Z,2.72
2023-05-10T14:20:13.022Z,1.98
2023-05-10T14:22:42.763Z,2.30
2023-05-10T14:25:13.825Z,2.17
2023-05-10T14:27:42.852Z,2.78
2023-05-10T14:30:12.832Z,2.20
2023-05-10T14:32:42.013Z,2.28
2023-05-10T14:35:14.471Z,2.45
2023-05-10T14:37:45.335Z,2.20
2023-05-10T14:40:16.435Z,2.30
2023-05-10T14:42:45.856Z,2.10
2023-05-10T14:45:15.529Z,2.15
2023-05-10T14:47:44.964Z,2.10
2023-05-10T14:50:24.754Z,2.13
2023-05-10T14:53:03.378Z,2.50
2023-05-10T14:55:34.038Z,2.33
2023-05-10T14:58:03.139Z,2.50
2023-05-10T15:00:33.193Z,2.40
2023-05-10T15:03:02.935Z,2.42
2023-05-10T15:05:32.352Z,2.28
2023-05-10T15:08:01.762Z,2.55
2023-05-10T15:10:33.144Z,2.47
2023-05-10T15:13:06.067Z,2.45
2023-05-10T15:15:35.365Z,2.90
2023-05-10T15:18:04.530Z,1.90
2023-05-10T15:20:33.652Z,2.78
2023-05-10T15:23:03.029Z,2.08
2023-05-10T15:25:32.400Z,2.70
2023-05-10T15:28:01.622Z,2.30
2023-05-10T15:30:32.505Z,2.50
2023-05-10T15:33:01.679Z,2.17
2023-05-10T15:35:30.900Z,2.15
2023-05-10T15:38:00.155Z,2.30
2023-05-10T15:40:29.402Z,3.00
2023-05-10T15:42:58.506Z,3.10
2023-05-10T15:45:27.721Z,2.30
2023-05-10T15:47:58.462Z,2.40
2023-05-10T15:50:27.921Z,2.60
2023-05-10T15:52:57.254Z,2.38
2023-05-10T15:55:27.964Z,2.60
2023-05-10T15:57:57.083Z,2.42
2023-05-10T16:00:26.591Z,2.20
2023-05-10T16:02:55.897Z,2.53
2023-05-10T16:05:27.733Z,2.20
2023-05-10T16:07:56.914Z,2.30
2023-05-10T16:10:26.462Z,2.23
2023-05-10T16:12:56.511Z,2.53
2023-05-10T16:15:26.119Z,1.90
2023-05-10T16:17:55.698Z,1.95
2023-05-10T16:20:27.033Z,2.10
2023-05-10T16:22:57.501Z,2.50
2023-05-10T16:25:27.692Z,2.40
2023-05-10T16:27:57.454Z,1.92
2023-05-10T16:30:29.622Z,1.90
2023-05-10T16:32:59.665Z,2.47
2023-05-10T16:35:31.331Z,1.90
2023-05-10T16:38:00.754Z,1.98
2023-05-10T16:40:30.242Z,1.90
2023-05-10T16:42:59.960Z,2.33
2023-05-10T16:45:32.918Z,2.00
2023-05-10T16:48:02.709Z,2.45
2023-05-10T16:50:34.055Z,2.17
2023-05-10T16:53:04.136Z,2.28
2023-05-10T16:55:34.426Z,2.55
2023-05-10T16:58:04.493Z,2.50
2023-05-10T17:00:34.270Z,2.38
2023-05-10T17:03:04.372Z,2.20
2023-05-10T17:05:35.918Z,2.10
2023-05-10T17:08:05.895Z,2.37
2023-05-10T17:10:35.799Z,2.23
2023-05-10T17:13:06.639Z,2.43
2023-05-10T17:15:38.838Z,2.53
2023-05-10T17:18:10.601Z,2.43
2023-05-10T17:20:42.237Z,2.60
2023-05-10T17:23:12.174Z,2.43
2023-05-10T17:25:43.194Z,2.67
2023-05-10T17:28:13.884Z,2.67
2023-05-10T17:30:43.815Z,2.37
2023-05-10T17:33:13.886Z,2.30
2023-05-10T17:35:47.156Z,2.60
2023-05-10T17:38:17.040Z,2.30
2023-05-10T17:40:47.240Z,2.67
2023-05-10T17:43:17.138Z,2.60
2023-05-10T17:45:49.840Z,2.87
2023-05-10T17:48:19.727Z,2.90
2023-05-10T17:50:51.602Z,2.77
2023-05-10T17:53:21.844Z,2.80
2023-05-10T17:55:54.142Z,2.63
2023-05-10T17:58:24.065Z,2.50
2023-05-10T18:00:54.424Z,2.47
2023-05-10T18:03:24.376Z,2.63
2023-05-10T18:05:56.544Z,2.83
2023-05-10T18:08:27.710Z,2.50
2023-05-10T18:10:57.680Z,2.80
2023-05-10T18:13:27.750Z,2.90
2023-05-10T18:15:57.747Z,3.00
2023-05-10T18:18:27.700Z,3.27
2023-05-10T18:20:59.231Z,2.97
2023-05-10T18:23:29.257Z,3.67
2023-05-10T18:25:59.153Z,2.97
2023-05-10T18:28:29.165Z,3.00
2023-05-10T18:30:59.352Z,3.30
2023-05-10T18:33:29.475Z,2.80
2023-05-10T18:36:01.569Z,2.60
2023-05-10T18:38:31.642Z,2.80
2023-05-10T18:41:01.887Z,2.90
2023-05-10T18:43:31.836Z,3.33
2023-05-10T18:46:01.872Z,3.20
2023-05-10T18:48:31.779Z,3.03
2023-05-10T18:51:03.477Z,3.17
2023-05-10T18:53:34.351Z,3.40
2023-05-10T18:56:04.997Z,3.23
2023-05-10T18:58:39.891Z,3.00
2023-05-10T19:01:11.028Z,3.20
2023-05-10T19:03:44.419Z,3.17
2023-05-10T19:06:17.180Z,3.07
2023-05-10T19:08:49.823Z,3.70
2023-05-10T19:11:22.799Z,4.53
2023-05-10T19:13:53.433Z,7.37
2023-05-10T19:16:24.454Z,4.20
2023-05-10T19:19:04.303Z,3.30
2023-05-10T19:21:37.210Z,4.17
2023-05-10T19:24:08.261Z,3.60
2023-05-10T19:26:39.182Z,3.73
2023-05-10T19:29:09.840Z,4.37
2023-05-10T19:31:40.571Z,4.30
2023-05-10T19:34:11.551Z,3.90
2023-05-10T19:36:43.776Z,3.97
2023-05-10T19:39:15.704Z,3.70
2023-05-10T19:41:46.201Z,3.60
2023-05-10T19:44:16.768Z,4.20
2023-05-10T19:46:48.262Z,4.13
2023-05-10T19:49:19.289Z,4.43
2023-05-10T19:51:51.550Z,3.80
2023-05-10T19:54:22.097Z,4.00
2023-05-10T19:56:52.247Z,4.00
2023-05-10T19:59:22.209Z,4.27
2023-05-10T20:01:52.072Z,4.00
2023-05-10T20:04:24.170Z,4.27
2023-05-10T20:06:56.151Z,5.23
2023-05-10T20:09:26.549Z,4.57
2023-05-10T20:11:56.484Z,4.60
2023-05-10T20:14:26.486Z,5.40
2023-05-10T20:16:56.531Z,4.80
2023-05-10T20:19:26.731Z,4.73
2023-05-10T20:21:59.468Z,5.57
2023-05-10T20:24:30.598Z,4.90
2023-05-10T20:27:00.908Z,5.13
2023-05-10T20:29:33.194Z,4.60
2023-05-10T20:32:03.245Z,4.63
2023-05-10T20:34:33.390Z,4.67
2023-05-10T20:37:06.466Z,5.40
2023-05-10T20:39:36.419Z,4.70
2023-05-10T20:42:06.610Z,4.90
2023-05-10T20:44:36.741Z,5.40
2023-05-10T20:47:06.932Z,5.33
2023-05-10T20:49:38.427Z,5.33
2023-05-10T20:52:09.893Z,5.13
2023-05-10T20:54:39.765Z,5.20
2023-05-10T20:57:13.005Z,5.40
2023-05-10T20:59:43.319Z,5.47
2023-05-10T21:02:12.920Z,5.00
2023-05-10T21:04:42.161Z,4.90
2023-05-10T21:07:13.011Z,5.87
2023-05-10T21:09:42.293Z,5.53
2023-05-10T21:12:12.226Z,5.70
2023-05-10T21:14:42.610Z,5.57
2023-05-10T21:17:12.271Z,5.70
2023-05-10T21:19:41.544Z,4.93
2023-05-10T21:22:12.255Z,5.67
2023-05-10T21:24:41.363Z,5.53
2023-05-10T21:27:10.749Z,5.93
2023-05-10T21:29:39.914Z,5.30
2023-05-10T21:32:09.840Z,5.70
2023-05-10T21:34:39.055Z,6.00
2023-05-10T21:37:08.186Z,5.63
2023-05-10T21:39:38.867Z,5.77
2023-05-10T21:42:08.308Z,5.87
2023-05-10T21:44:38.943Z,6.27
2023-05-10T21:47:08.426Z,6.43
2023-05-10T21:49:37.884Z,5.40
2023-05-10T21:52:07.498Z,5.80
2023-05-10T21:54:39.193Z,5.23
2023-05-10T21:57:08.384Z,5.90
2023-05-10T21:59:37.712Z,5.37
2023-05-10T22:02:06.854Z,5.47
2023-05-10T22:04:36.112Z,5.07
2023-05-10T22:07:05.259Z,5.80
2023-05-10T22:09:34.309Z,4.57
2023-05-10T22:12:05.273Z,4.80
2023-05-10T22:14:34.623Z,5.13
2023-05-10T22:17:03.909Z,4.70
2023-05-10T22:19:33.102Z,4.97
2023-05-10T22:22:02.242Z,5.20
2023-05-10T22:24:31.906Z,5.03
2023-05-10T22:27:01.113Z,4.90
2023-05-10T22:29:32.079Z,4.60
2023-05-10T22:32:05.747Z,4.53
2023-05-10T22:34:35.720Z,4.30
2023-05-10T22:37:05.152Z,4.97
2023-05-10T22:39:35.252Z,4.37
2023-05-10T22:42:04.395Z,4.60
2023-05-10T22:44:35.051Z,4.83
2023-05-10T22:47:04.283Z,4.40
2023-05-10T22:49:33.443Z,4.00
2023-05-10T22:52:02.862Z,4.90
2023-05-10T22:54:33.189Z,4.77
2023-05-10T22:57:04.068Z,4.17
2023-05-10T22:59:34.737Z,4.23
2023-05-10T23:02:04.142Z,4.50
2023-05-10T23:04:33.358Z,4.53
2023-05-10T23:07:02.470Z,4.73
2023-05-10T23:09:31.548Z,4.90
2023-05-10T23:12:00.712Z,4.27
2023-05-10T23:14:30.355Z,4.50
2023-05-10T23:17:00.891Z,4.40
2023-05-10T23:19:30.054Z,4.70
2023-05-10T23:21:59.588Z,5.13
2023-05-10T23:24:29.276Z,4.60
2023-05-10T23:26:58.419Z,4.13
2023-05-10T23:29:27.848Z,4.07
2023-05-10T23:31:57.136Z,4.67
2023-05-10T23:34:27.725Z,4.30
2023-05-10T23:36:56.865Z,5.23
2023-05-10T23:39:26.006Z,4.60
2023-05-10T23:41:55.112Z,4.37
2023-05-10T23:44:24.530Z,4.77
2023-05-10T23:46:53.814Z,4.33
2023-05-10T23:49:23.008Z,4.40
2023-05-10T23:51:54.872Z,4.17
2023-05-10T23:54:23.961Z,4.03
2023-05-10T23:56:53.111Z,4.03
2023-05-10T23:59:22.208Z,3.80
